Alexander Mills, North Carolina
Current Conditions -  °F | °C
As of 8:35 AM on Monday 24 Nov 2014 (Local Time) from KFQD Reporting Station
Clear Clear  
Wind Chill: 60°   Ceiling: Unl
Heat Index: 60°   Visibility: 10mi
Dew Point: 56°   Wind: 10mph
Humidity: 86%   Direction: 210°SSW
Pressure: 29.78"   Gusts: 18mph
Location:  35.27°N, 81.8676°W
Report Text: KFQD 241335Z AUTO 21009G16KT 10SM CLR 15/13 A2978 RMK AO2 LTG DSNT E T01540131
Loading
Personal Weather Stations






























Interactive Weather Map New forecast layout! Learn more

10-Day Weather Forecast

Advertisements
Track Severe Weather on mobile